sensor_id;sensor_type;location;lat;lon;timestamp;temperature;humidity
16140;DHT22;8175;49.326;12.690;2024-02-14T00:01:34;1.30;99.90
16140;DHT22;8175;49.326;12.690;2024-02-14T00:04:02;1.40;99.90
16140;DHT22;8175;49.326;12.690;2024-02-14T00:06:28;1.40;99.90
16140;DHT22;8175;49.326;12.690;2024-02-14T00:08:53;1.50;99.90
16140;DHT22;8175;49.326;12.690;2024-02-14T00:11:19;1.60;99.90
16140;DHT22;8175;49.326;12.690;2024-02-14T00:13:45;1.50;99.90
16140;DHT22;8175;49.326;12.690;2024-02-14T00:16:10;1.40;99.90
16140;DHT22;8175;49.326;12.690;2024-02-14T00:18:36;1.30;99.90
16140;DHT22;8175;49.326;12.690;2024-02-14T00:21:02;1.30;99.90
16140;DHT22;8175;49.326;12.690;2024-02-14T00:23:27;1.30;99.90
16140;DHT22;8175;49.326;12.690;2024-02-14T00:25:53;1.30;99.90
16140;DHT22;8175;49.326;12.690;2024-02-14T00:28:19;1.30;99.90
16140;DHT22;8175;49.326;12.690;2024-02-14T00:30:44;1.30;99.90
16140;DHT22;8175;49.326;12.690;2024-02-14T00:33:11;1.30;99.90
16140;DHT22;8175;49.326;12.690;2024-02-14T00:35:36;1.30;99.90
16140;DHT22;8175;49.326;12.690;2024-02-14T00:38:02;1.30;99.90
16140;DHT22;8175;49.326;12.690;2024-02-14T00:40:28;1.40;99.90
16140;DHT22;8175;49.326;12.690;2024-02-14T00:42:53;1.30;99.90
16140;DHT22;8175;49.326;12.690;2024-02-14T00:45:19;1.30;99.90
16140;DHT22;8175;49.326;12.690;2024-02-14T00:47:44;1.40;99.90
16140;DHT22;8175;49.326;12.690;2024-02-14T00:50:10;1.50;99.90
16140;DHT22;8175;49.326;12.690;2024-02-14T00:52:38;1.40;99.90
16140;DHT22;8175;49.326;12.690;2024-02-14T00:55:05;1.50;99.90
16140;DHT22;8175;49.326;12.690;2024-02-14T00:57:32;1.50;99.90
16140;DHT22;8175;49.326;12.690;2024-02-14T00:59:57;1.50;99.90
16140;DHT22;8175;49.326;12.690;2024-02-14T01:02:24;1.50;99.90
16140;DHT22;8175;49.326;12.690;2024-02-14T01:04:49;1.50;99.90
16140;DHT22;8175;49.326;12.690;2024-02-14T01:07:15;1.50;99.90
16140;DHT22;8175;49.326;12.690;2024-02-14T01:09:40;1.40;99.90
16140;DHT22;8175;49.326;12.690;2024-02-14T01:12:06;1.30;99.90
16140;DHT22;8175;49.326;12.690;2024-02-14T01:14:32;1.40;99.90
16140;DHT22;8175;49.326;12.690;2024-02-14T01:16:58;1.50;99.90
16140;DHT22;8175;49.326;12.690;2024-02-14T01:19:23;1.60;99.90
16140;DHT22;8175;49.326;12.690;2024-02-14T01:21:51;1.70;99.90
16140;DHT22;8175;49.326;12.690;2024-02-14T01:24:17;1.70;99.90
16140;DHT22;8175;49.326;12.690;2024-02-14T01:26:42;1.70;99.90
16140;DHT22;8175;49.326;12.690;2024-02-14T01:29:08;1.70;99.90
16140;DHT22;8175;49.326;12.690;2024-02-14T01:31:34;1.60;99.90
16140;DHT22;8175;49.326;12.690;2024-02-14T01:34:00;1.60;99.90
16140;DHT22;8175;49.326;12.690;2024-02-14T01:36:29;1.60;99.90
16140;DHT22;8175;49.326;12.690;2024-02-14T01:38:55;1.70;99.90
16140;DHT22;8175;49.326;12.690;2024-02-14T01:41:21;1.70;99.90
16140;DHT22;8175;49.326;12.690;2024-02-14T01:43:49;1.80;99.90
16140;DHT22;8175;49.326;12.690;2024-02-14T01:46:15;1.80;99.90
16140;DHT22;8175;49.326;12.690;2024-02-14T01:48:41;1.90;99.90
16140;DHT22;8175;49.326;12.690;2024-02-14T01:51:09;1.90;99.90
16140;DHT22;8175;49.326;12.690;2024-02-14T01:53:36;1.80;99.90
16140;DHT22;8175;49.326;12.690;2024-02-14T01:56:04;1.70;99.90
16140;DHT22;8175;49.326;12.690;2024-02-14T01:58:30;1.60;99.90
16140;DHT22;8175;49.326;12.690;2024-02-14T02:00:56;1.50;99.90
16140;DHT22;8175;49.326;12.690;2024-02-14T02:03:27;1.50;99.90
16140;DHT22;8175;49.326;12.690;2024-02-14T02:05:53;1.50;99.90
16140;DHT22;8175;49.326;12.690;2024-02-14T02:08:20;1.50;99.90
16140;DHT22;8175;49.326;12.690;2024-02-14T02:10:45;1.40;99.90
16140;DHT22;8175;49.326;12.690;2024-02-14T02:13:11;1.50;99.90
16140;DHT22;8175;49.326;12.690;2024-02-14T02:15:37;1.50;99.90
16140;DHT22;8175;49.326;12.690;2024-02-14T02:18:03;1.50;99.90
16140;DHT22;8175;49.326;12.690;2024-02-14T02:20:31;1.60;99.90
16140;DHT22;8175;49.326;12.690;2024-02-14T02:22:58;1.80;99.90
16140;DHT22;8175;49.326;12.690;2024-02-14T02:25:24;1.90;99.90
16140;DHT22;8175;49.326;12.690;2024-02-14T02:27:54;2.00;99.90
16140;DHT22;8175;49.326;12.690;2024-02-14T02:30:22;2.20;99.90
16140;DHT22;8175;49.326;12.690;2024-02-14T02:32:48;2.30;99.90
16140;DHT22;8175;49.326;12.690;2024-02-14T02:35:15;2.30;99.90
16140;DHT22;8175;49.326;12.690;2024-02-14T02:37:41;2.40;99.90
16140;DHT22;8175;49.326;12.690;2024-02-14T02:40:08;2.40;99.90
16140;DHT22;8175;49.326;12.690;2024-02-14T02:42:36;2.40;99.90
16140;DHT22;8175;49.326;12.690;2024-02-14T02:45:01;2.40;99.90
16140;DHT22;8175;49.326;12.690;2024-02-14T02:47:32;2.40;99.90
16140;DHT22;8175;49.326;12.690;2024-02-14T02:49:58;2.50;99.90
16140;DHT22;8175;49.326;12.690;2024-02-14T02:52:26;2.60;99.90
16140;DHT22;8175;49.326;12.690;2024-02-14T02:54:53;2.60;99.90
16140;DHT22;8175;49.326;12.690;2024-02-14T02:57:19;2.60;99.90
16140;DHT22;8175;49.326;12.690;2024-02-14T02:59:45;2.60;99.90
16140;DHT22;8175;49.326;12.690;2024-02-14T03:02:13;2.60;99.90
16140;DHT22;8175;49.326;12.690;2024-02-14T03:04:39;2.60;99.90
16140;DHT22;8175;49.326;12.690;2024-02-14T03:07:05;2.60;99.90
16140;DHT22;8175;49.326;12.690;2024-02-14T03:09:34;2.70;99.90
16140;DHT22;8175;49.326;12.690;2024-02-14T03:12:01;2.60;99.90
16140;DHT22;8175;49.326;12.690;2024-02-14T03:14:29;2.60;99.90
16140;DHT22;8175;49.326;12.690;2024-02-14T03:17:01;2.60;99.90
16140;DHT22;8175;49.326;12.690;2024-02-14T03:19:27;2.60;99.90
16140;DHT22;8175;49.326;12.690;2024-02-14T03:21:56;2.50;99.90
16140;DHT22;8175;49.326;12.690;2024-02-14T03:24:22;2.70;99.90
16140;DHT22;8175;49.326;12.690;2024-02-14T03:26:51;2.60;99.90
16140;DHT22;8175;49.326;12.690;2024-02-14T03:29:17;2.60;99.90
16140;DHT22;8175;49.326;12.690;2024-02-14T03:31:42;2.60;99.90
16140;DHT22;8175;49.326;12.690;2024-02-14T03:34:09;2.60;99.90
16140;DHT22;8175;49.326;12.690;2024-02-14T03:36:37;2.70;99.90
16140;DHT22;8175;49.326;12.690;2024-02-14T03:39:03;2.60;99.90
16140;DHT22;8175;49.326;12.690;2024-02-14T03:41:30;2.50;99.90
16140;DHT22;8175;49.326;12.690;2024-02-14T03:43:56;2.50;99.90
16140;DHT22;8175;49.326;12.690;2024-02-14T03:46:26;2.50;99.90
16140;DHT22;8175;49.326;12.690;2024-02-14T03:48:52;2.70;99.90
16140;DHT22;8175;49.326;12.690;2024-02-14T03:51:18;2.60;99.90
16140;DHT22;8175;49.326;12.690;2024-02-14T03:53:45;2.60;99.90
16140;DHT22;8175;49.326;12.690;2024-02-14T03:56:11;2.50;99.90
16140;DHT22;8175;49.326;12.690;2024-02-14T03:58:38;2.40;99.90
16140;DHT22;8175;49.326;12.690;2024-02-14T04:01:04;2.30;99.90
16140;DHT22;8175;49.326;12.690;2024-02-14T04:03:30;2.30;99.90
16140;DHT22;8175;49.326;12.690;2024-02-14T04:05:56;2.30;99.90
16140;DHT22;8175;49.326;12.690;2024-02-14T04:08:23;2.30;99.90
16140;DHT22;8175;49.326;12.690;2024-02-14T04:10:48;2.30;99.90
16140;DHT22;8175;49.326;12.690;2024-02-14T04:13:16;2.20;99.90
16140;DHT22;8175;49.326;12.690;2024-02-14T04:15:42;2.20;99.90
16140;DHT22;8175;49.326;12.690;2024-02-14T04:18:12;2.20;99.90
16140;DHT22;8175;49.326;12.690;2024-02-14T04:20:38;2.10;99.90
16140;DHT22;8175;49.326;12.690;2024-02-14T04:23:04;2.10;99.90
16140;DHT22;8175;49.326;12.690;2024-02-14T04:25:33;2.10;99.90
16140;DHT22;8175;49.326;12.690;2024-02-14T04:27:59;2.10;99.90
16140;DHT22;8175;49.326;12.690;2024-02-14T04:30:25;2.10;99.90
16140;DHT22;8175;49.326;12.690;2024-02-14T04:32:51;2.20;99.90
16140;DHT22;8175;49.326;12.690;2024-02-14T04:35:19;2.30;99.90
16140;DHT22;8175;49.326;12.690;2024-02-14T04:37:45;2.30;99.90
16140;DHT22;8175;49.326;12.690;2024-02-14T04:40:12;2.30;99.90
16140;DHT22;8175;49.326;12.690;2024-02-14T04:42:38;2.30;99.90
16140;DHT22;8175;49.326;12.690;2024-02-14T04:45:04;2.20;99.90
16140;DHT22;8175;49.326;12.690;2024-02-14T04:47:30;2.30;99.90
16140;DHT22;8175;49.326;12.690;2024-02-14T04:49:55;2.30;99.90
16140;DHT22;8175;49.326;12.690;2024-02-14T04:52:21;2.20;99.90
16140;DHT22;8175;49.326;12.690;2024-02-14T04:54:47;2.20;99.90
16140;DHT22;8175;49.326;12.690;2024-02-14T04:57:13;2.20;99.90
16140;DHT22;8175;49.326;12.690;2024-02-14T04:59:39;2.20;99.90
16140;DHT22;8175;49.326;12.690;2024-02-14T05:02:05;2.30;99.90
16140;DHT22;8175;49.326;12.690;2024-02-14T05:04:31;2.10;99.90
16140;DHT22;8175;49.326;12.690;2024-02-14T05:06:57;2.00;99.90
16140;DHT22;8175;49.326;12.690;2024-02-14T05:09:22;2.00;99.90
16140;DHT22;8175;49.326;12.690;2024-02-14T05:11:48;2.10;99.90
16140;DHT22;8175;49.326;12.690;2024-02-14T05:14:14;2.10;99.90
16140;DHT22;8175;49.326;12.690;2024-02-14T05:16:40;2.10;99.90
16140;DHT22;8175;49.326;12.690;2024-02-14T05:19:06;2.30;99.90
16140;DHT22;8175;49.326;12.690;2024-02-14T05:21:31;2.20;99.90
16140;DHT22;8175;49.326;12.690;2024-02-14T05:23:57;2.10;99.90
16140;DHT22;8175;49.326;12.690;2024-02-14T05:26:23;2.10;99.90
16140;DHT22;8175;49.326;12.690;2024-02-14T05:28:48;2.10;99.90
16140;DHT22;8175;49.326;12.690;2024-02-14T05:31:15;2.10;99.90
16140;DHT22;8175;49.326;12.690;2024-02-14T05:33:41;2.00;99.90
16140;DHT22;8175;49.326;12.690;2024-02-14T05:36:08;1.90;99.90
16140;DHT22;8175;49.326;12.690;2024-02-14T05:38:34;1.90;99.90
16140;DHT22;8175;49.326;12.690;2024-02-14T05:40:59;1.80;99.90
16140;DHT22;8175;49.326;12.690;2024-02-14T05:43:26;1.70;99.90
16140;DHT22;8175;49.326;12.690;2024-02-14T05:45:51;1.70;99.90
16140;DHT22;8175;49.326;12.690;2024-02-14T05:48:17;1.70;99.90
16140;DHT22;8175;49.326;12.690;2024-02-14T05:50:43;1.90;99.90
16140;DHT22;8175;49.326;12.690;2024-02-14T05:53:08;1.70;99.90
16140;DHT22;8175;49.326;12.690;2024-02-14T05:55:34;1.90;99.90
16140;DHT22;8175;49.326;12.690;2024-02-14T05:58:00;2.00;99.90
16140;DHT22;8175;49.326;12.690;2024-02-14T06:00:25;2.10;99.90
16140;DHT22;8175;49.326;12.690;2024-02-14T06:02:52;2.10;99.90
16140;DHT22;8175;49.326;12.690;2024-02-14T06:05:17;2.10;99.90
16140;DHT22;8175;49.326;12.690;2024-02-14T06:07:43;2.10;99.90
16140;DHT22;8175;49.326;12.690;2024-02-14T06:10:11;2.00;99.90
16140;DHT22;8175;49.326;12.690;2024-02-14T06:12:36;1.90;99.90
16140;DHT22;8175;49.326;12.690;2024-02-14T06:15:03;1.80;99.90
16140;DHT22;8175;49.326;12.690;2024-02-14T06:17:28;1.80;99.90
16140;DHT22;8175;49.326;12.690;2024-02-14T06:19:54;1.70;99.90
16140;DHT22;8175;49.326;12.690;2024-02-14T06:22:20;1.70;99.90
16140;DHT22;8175;49.326;12.690;2024-02-14T06:24:46;1.70;99.90
16140;DHT22;8175;49.326;12.690;2024-02-14T06:27:15;1.80;99.90
16140;DHT22;8175;49.326;12.690;2024-02-14T06:29:44;1.90;99.90
16140;DHT22;8175;49.326;12.690;2024-02-14T06:32:13;2.00;99.90
16140;DHT22;8175;49.326;12.690;2024-02-14T06:34:38;2.00;99.90
16140;DHT22;8175;49.326;12.690;2024-02-14T06:37:04;2.10;99.90
16140;DHT22;8175;49.326;12.690;2024-02-14T06:39:30;2.10;99.90
16140;DHT22;8175;49.326;12.690;2024-02-14T06:41:56;2.10;99.90
16140;DHT22;8175;49.326;12.690;2024-02-14T06:44:23;2.20;99.90
16140;DHT22;8175;49.326;12.690;2024-02-14T06:46:49;2.20;99.90
16140;DHT22;8175;49.326;12.690;2024-02-14T06:49:16;2.40;99.90
16140;DHT22;8175;49.326;12.690;2024-02-14T06:51:41;2.50;99.90
16140;DHT22;8175;49.326;12.690;2024-02-14T06:54:07;2.60;99.90
16140;DHT22;8175;49.326;12.690;2024-02-14T06:56:33;2.60;99.90
16140;DHT22;8175;49.326;12.690;2024-02-14T06:58:59;2.70;99.90
16140;DHT22;8175;49.326;12.690;2024-02-14T07:01:28;2.70;99.90
16140;DHT22;8175;49.326;12.690;2024-02-14T07:03:54;2.80;99.90
16140;DHT22;8175;49.326;12.690;2024-02-14T07:06:20;2.90;99.90
16140;DHT22;8175;49.326;12.690;2024-02-14T07:08:46;2.90;99.90
16140;DHT22;8175;49.326;12.690;2024-02-14T07:11:13;3.00;99.90
16140;DHT22;8175;49.326;12.690;2024-02-14T07:13:38;3.20;99.90
16140;DHT22;8175;49.326;12.690;2024-02-14T07:16:04;3.30;99.90
16140;DHT22;8175;49.326;12.690;2024-02-14T07:18:30;3.30;99.90
16140;DHT22;8175;49.326;12.690;2024-02-14T07:20:56;3.40;99.90
16140;DHT22;8175;49.326;12.690;2024-02-14T07:23:21;3.40;99.90
16140;DHT22;8175;49.326;12.690;2024-02-14T07:25:47;3.30;99.90
16140;DHT22;8175;49.326;12.690;2024-02-14T07:28:13;3.40;99.90
16140;DHT22;8175;49.326;12.690;2024-02-14T07:30:38;3.50;99.90
16140;DHT22;8175;49.326;12.690;2024-02-14T07:33:04;3.60;99.90
16140;DHT22;8175;49.326;12.690;2024-02-14T07:35:30;3.80;99.90
16140;DHT22;8175;49.326;12.690;2024-02-14T07:37:56;3.90;99.90
16140;DHT22;8175;49.326;12.690;2024-02-14T07:40:22;4.00;99.90
16140;DHT22;8175;49.326;12.690;2024-02-14T07:42:48;4.10;99.90
16140;DHT22;8175;49.326;12.690;2024-02-14T07:45:14;4.10;99.90
16140;DHT22;8175;49.326;12.690;2024-02-14T07:47:40;4.10;99.90
16140;DHT22;8175;49.326;12.690;2024-02-14T07:50:06;4.20;99.90
16140;DHT22;8175;49.326;12.690;2024-02-14T07:52:32;4.20;99.90
16140;DHT22;8175;49.326;12.690;2024-02-14T07:54:58;4.20;99.90
16140;DHT22;8175;49.326;12.690;2024-02-14T07:57:24;4.10;99.90
16140;DHT22;8175;49.326;12.690;2024-02-14T07:59:53;4.10;99.90
16140;DHT22;8175;49.326;12.690;2024-02-14T08:02:20;4.30;99.90
16140;DHT22;8175;49.326;12.690;2024-02-14T08:04:45;4.60;99.90
16140;DHT22;8175;49.326;12.690;2024-02-14T08:07:11;4.80;99.90
16140;DHT22;8175;49.326;12.690;2024-02-14T08:09:37;4.90;99.90
16140;DHT22;8175;49.326;12.690;2024-02-14T08:12:05;4.60;99.90
16140;DHT22;8175;49.326;12.690;2024-02-14T08:14:31;4.20;99.90
16140;DHT22;8175;49.326;12.690;2024-02-14T08:16:57;3.70;99.90
16140;DHT22;8175;49.326;12.690;2024-02-14T08:19:22;3.40;99.90
16140;DHT22;8175;49.326;12.690;2024-02-14T08:21:49;3.20;99.90
16140;DHT22;8175;49.326;12.690;2024-02-14T08:24:15;3.10;99.90
16140;DHT22;8175;49.326;12.690;2024-02-14T08:26:40;3.20;99.90
16140;DHT22;8175;49.326;12.690;2024-02-14T08:29:06;3.20;99.90
16140;DHT22;8175;49.326;12.690;2024-02-14T08:31:32;3.30;99.90
16140;DHT22;8175;49.326;12.690;2024-02-14T08:33:58;3.40;99.90
16140;DHT22;8175;49.326;12.690;2024-02-14T08:36:24;3.50;99.90
16140;DHT22;8175;49.326;12.690;2024-02-14T08:38:50;3.80;99.90
16140;DHT22;8175;49.326;12.690;2024-02-14T08:41:16;4.00;99.90
16140;DHT22;8175;49.326;12.690;2024-02-14T08:43:41;4.00;99.90
16140;DHT22;8175;49.326;12.690;2024-02-14T08:46:10;4.10;99.90
16140;DHT22;8175;49.326;12.690;2024-02-14T08:48:39;4.10;99.90
16140;DHT22;8175;49.326;12.690;2024-02-14T08:51:13;4.20;99.90
16140;DHT22;8175;49.326;12.690;2024-02-14T08:53:39;4.20;99.90
16140;DHT22;8175;49.326;12.690;2024-02-14T08:56:08;4.30;99.90
16140;DHT22;8175;49.326;12.690;2024-02-14T08:58:34;4.50;99.90
16140;DHT22;8175;49.326;12.690;2024-02-14T09:01:01;4.60;99.90
16140;DHT22;8175;49.326;12.690;2024-02-14T09:03:26;4.60;99.90
16140;DHT22;8175;49.326;12.690;2024-02-14T09:05:52;4.80;99.90
16140;DHT22;8175;49.326;12.690;2024-02-14T09:08:19;5.10;99.90
16140;DHT22;8175;49.326;12.690;2024-02-14T09:10:46;5.60;99.90
16140;DHT22;8175;49.326;12.690;2024-02-14T09:13:12;5.60;99.90
16140;DHT22;8175;49.326;12.690;2024-02-14T09:15:37;5.40;99.90
16140;DHT22;8175;49.326;12.690;2024-02-14T09:18:03;5.70;99.90
16140;DHT22;8175;49.326;12.690;2024-02-14T09:20:29;6.30;99.90
16140;DHT22;8175;49.326;12.690;2024-02-14T09:22:56;6.70;99.90
16140;DHT22;8175;49.326;12.690;2024-02-14T09:25:21;6.90;99.90
16140;DHT22;8175;49.326;12.690;2024-02-14T09:27:49;6.70;99.90
16140;DHT22;8175;49.326;12.690;2024-02-14T09:30:15;6.40;99.90
16140;DHT22;8175;49.326;12.690;2024-02-14T09:32:43;6.40;99.90
16140;DHT22;8175;49.326;12.690;2024-02-14T09:35:09;6.80;99.90
16140;DHT22;8175;49.326;12.690;2024-02-14T09:37:35;7.00;99.90
16140;DHT22;8175;49.326;12.690;2024-02-14T09:40:04;7.20;99.90
16140;DHT22;8175;49.326;12.690;2024-02-14T09:42:38;7.50;99.90
16140;DHT22;8175;49.326;12.690;2024-02-14T09:45:07;7.50;99.90
16140;DHT22;8175;49.326;12.690;2024-02-14T09:47:33;7.10;99.90
16140;DHT22;8175;49.326;12.690;2024-02-14T09:50:01;6.70;99.90
16140;DHT22;8175;49.326;12.690;2024-02-14T09:52:28;6.30;99.90
16140;DHT22;8175;49.326;12.690;2024-02-14T09:54:55;5.90;99.90
16140;DHT22;8175;49.326;12.690;2024-02-14T09:57:21;5.80;99.90
16140;DHT22;8175;49.326;12.690;2024-02-14T09:59:48;5.80;99.90
16140;DHT22;8175;49.326;12.690;2024-02-14T10:02:14;5.80;99.90
16140;DHT22;8175;49.326;12.690;2024-02-14T10:04:41;5.80;99.90
16140;DHT22;8175;49.326;12.690;2024-02-14T10:07:07;5.80;99.90
16140;DHT22;8175;49.326;12.690;2024-02-14T10:09:43;5.90;99.90
16140;DHT22;8175;49.326;12.690;2024-02-14T10:12:11;5.90;99.90
16140;DHT22;8175;49.326;12.690;2024-02-14T10:14:37;5.90;99.90
16140;DHT22;8175;49.326;12.690;2024-02-14T10:17:06;5.80;99.90
16140;DHT22;8175;49.326;12.690;2024-02-14T10:19:33;5.80;99.90
16140;DHT22;8175;49.326;12.690;2024-02-14T10:22:00;5.70;99.90
16140;DHT22;8175;49.326;12.690;2024-02-14T10:24:28;5.60;99.90
16140;DHT22;8175;49.326;12.690;2024-02-14T10:26:54;5.70;99.90
16140;DHT22;8175;49.326;12.690;2024-02-14T10:29:23;5.70;99.90
16140;DHT22;8175;49.326;12.690;2024-02-14T10:31:50;5.80;99.90
16140;DHT22;8175;49.326;12.690;2024-02-14T10:34:16;5.90;99.90
16140;DHT22;8175;49.326;12.690;2024-02-14T10:36:43;6.10;99.90
16140;DHT22;8175;49.326;12.690;2024-02-14T10:39:11;6.30;99.90
16140;DHT22;8175;49.326;12.690;2024-02-14T10:41:37;6.40;99.90
16140;DHT22;8175;49.326;12.690;2024-02-14T10:44:03;6.40;99.90
16140;DHT22;8175;49.326;12.690;2024-02-14T10:46:32;6.40;99.90
16140;DHT22;8175;49.326;12.690;2024-02-14T10:49:05;6.50;99.90
16140;DHT22;8175;49.326;12.690;2024-02-14T10:51:34;6.60;99.90
16140;DHT22;8175;49.326;12.690;2024-02-14T10:54:06;6.60;99.90
16140;DHT22;8175;49.326;12.690;2024-02-14T10:56:39;6.50;99.90
16140;DHT22;8175;49.326;12.690;2024-02-14T10:59:07;6.50;99.90
16140;DHT22;8175;49.326;12.690;2024-02-14T11:01:33;6.60;99.90
16140;DHT22;8175;49.326;12.690;2024-02-14T11:04:01;6.60;99.90
16140;DHT22;8175;49.326;12.690;2024-02-14T11:06:27;6.70;99.90
16140;DHT22;8175;49.326;12.690;2024-02-14T11:11:22;6.60;99.90
16140;DHT22;8175;49.326;12.690;2024-02-14T11:13:53;6.50;99.90
16140;DHT22;8175;49.326;12.690;2024-02-14T11:16:26;6.50;99.90
16140;DHT22;8175;49.326;12.690;2024-02-14T11:18:54;6.50;99.90
16140;DHT22;8175;49.326;12.690;2024-02-14T11:21:20;6.40;99.90
16140;DHT22;8175;49.326;12.690;2024-02-14T11:23:54;6.40;99.90
16140;DHT22;8175;49.326;12.690;2024-02-14T11:26:20;6.40;99.90
16140;DHT22;8175;49.326;12.690;2024-02-14T11:28:48;6.30;99.90
16140;DHT22;8175;49.326;12.690;2024-02-14T11:31:17;6.20;99.90
16140;DHT22;8175;49.326;12.690;2024-02-14T11:33:43;6.20;99.90
16140;DHT22;8175;49.326;12.690;2024-02-14T11:36:12;6.20;99.90
16140;DHT22;8175;49.326;12.690;2024-02-14T11:38:41;6.20;99.90
16140;DHT22;8175;49.326;12.690;2024-02-14T11:41:06;6.20;99.90
16140;DHT22;8175;49.326;12.690;2024-02-14T11:43:32;6.10;99.90
16140;DHT22;8175;49.326;12.690;2024-02-14T11:45:58;6.10;99.90
16140;DHT22;8175;49.326;12.690;2024-02-14T11:48:24;6.00;99.90
16140;DHT22;8175;49.326;12.690;2024-02-14T11:50:51;6.00;99.90
16140;DHT22;8175;49.326;12.690;2024-02-14T11:53:18;5.90;99.90
16140;DHT22;8175;49.326;12.690;2024-02-14T11:55:45;5.80;99.90
16140;DHT22;8175;49.326;12.690;2024-02-14T11:58:13;5.90;99.90
16140;DHT22;8175;49.326;12.690;2024-02-14T12:00:40;5.90;99.90
16140;DHT22;8175;49.326;12.690;2024-02-14T12:03:23;5.90;99.90
16140;DHT22;8175;49.326;12.690;2024-02-14T12:05:53;5.80;99.90
16140;DHT22;8175;49.326;12.690;2024-02-14T12:08:19;5.80;99.90
16140;DHT22;8175;49.326;12.690;2024-02-14T12:10:46;5.60;99.90
16140;DHT22;8175;49.326;12.690;2024-02-14T12:13:14;5.50;99.90
16140;DHT22;8175;49.326;12.690;2024-02-14T12:15:45;5.50;99.90
16140;DHT22;8175;49.326;12.690;2024-02-14T12:18:11;5.40;99.90
16140;DHT22;8175;49.326;12.690;2024-02-14T12:20:41;5.40;99.90
16140;DHT22;8175;49.326;12.690;2024-02-14T12:23:13;5.50;99.90
16140;DHT22;8175;49.326;12.690;2024-02-14T12:25:39;5.50;99.90
16140;DHT22;8175;49.326;12.690;2024-02-14T12:28:05;5.60;99.90
16140;DHT22;8175;49.326;12.690;2024-02-14T12:30:48;5.60;99.90
16140;DHT22;8175;49.326;12.690;2024-02-14T12:33:15;5.80;99.90
16140;DHT22;8175;49.326;12.690;2024-02-14T12:35:46;5.90;99.90
16140;DHT22;8175;49.326;12.690;2024-02-14T12:38:13;6.00;99.90
16140;DHT22;8175;49.326;12.690;2024-02-14T12:40:39;6.10;99.90
16140;DHT22;8175;49.326;12.690;2024-02-14T12:43:10;6.30;99.90
16140;DHT22;8175;49.326;12.690;2024-02-14T12:45:39;6.40;99.90
16140;DHT22;8175;49.326;12.690;2024-02-14T12:48:10;6.40;99.90
16140;DHT22;8175;49.326;12.690;2024-02-14T12:50:36;6.30;99.90
16140;DHT22;8175;49.326;12.690;2024-02-14T12:53:06;6.20;99.90
16140;DHT22;8175;49.326;12.690;2024-02-14T12:55:32;6.20;99.90
16140;DHT22;8175;49.326;12.690;2024-02-14T12:57:57;6.20;99.90
16140;DHT22;8175;49.326;12.690;2024-02-14T13:00:24;6.10;99.90
16140;DHT22;8175;49.326;12.690;2024-02-14T13:02:50;6.00;99.90
16140;DHT22;8175;49.326;12.690;2024-02-14T13:05:16;6.10;99.90
16140;DHT22;8175;49.326;12.690;2024-02-14T13:07:42;6.10;99.90
16140;DHT22;8175;49.326;12.690;2024-02-14T13:10:08;6.30;99.90
16140;DHT22;8175;49.326;12.690;2024-02-14T13:12:36;6.40;99.90
16140;DHT22;8175;49.326;12.690;2024-02-14T13:15:02;6.60;99.90
16140;DHT22;8175;49.326;12.690;2024-02-14T13:17:28;6.70;99.90
16140;DHT22;8175;49.326;12.690;2024-02-14T13:19:54;6.80;99.90
16140;DHT22;8175;49.326;12.690;2024-02-14T13:22:20;6.90;99.90
16140;DHT22;8175;49.326;12.690;2024-02-14T13:24:46;7.00;99.90
16140;DHT22;8175;49.326;12.690;2024-02-14T13:27:11;7.10;99.90
16140;DHT22;8175;49.326;12.690;2024-02-14T13:29:37;7.30;99.90
16140;DHT22;8175;49.326;12.690;2024-02-14T13:32:03;7.60;99.90
16140;DHT22;8175;49.326;12.690;2024-02-14T13:34:33;7.80;99.90
16140;DHT22;8175;49.326;12.690;2024-02-14T13:36:59;7.80;99.90
16140;DHT22;8175;49.326;12.690;2024-02-14T13:39:25;7.80;99.90
16140;DHT22;8175;49.326;12.690;2024-02-14T13:41:57;7.60;99.90
16140;DHT22;8175;49.326;12.690;2024-02-14T13:44:25;7.30;99.90
16140;DHT22;8175;49.326;12.690;2024-02-14T13:46:51;7.30;99.90
16140;DHT22;8175;49.326;12.690;2024-02-14T13:49:18;7.40;99.90
16140;DHT22;8175;49.326;12.690;2024-02-14T13:51:48;7.50;99.90
16140;DHT22;8175;49.326;12.690;2024-02-14T13:54:15;7.50;99.90
16140;DHT22;8175;49.326;12.690;2024-02-14T13:56:41;7.70;99.90
16140;DHT22;8175;49.326;12.690;2024-02-14T13:59:07;7.90;99.90
16140;DHT22;8175;49.326;12.690;2024-02-14T14:01:32;8.00;99.90
16140;DHT22;8175;49.326;12.690;2024-02-14T14:03:58;7.90;99.90
16140;DHT22;8175;49.326;12.690;2024-02-14T14:06:23;7.70;99.90
16140;DHT22;8175;49.326;12.690;2024-02-14T14:08:50;7.70;99.90
16140;DHT22;8175;49.326;12.690;2024-02-14T14:11:16;7.80;99.90
16140;DHT22;8175;49.326;12.690;2024-02-14T14:13:42;7.80;99.90
16140;DHT22;8175;49.326;12.690;2024-02-14T14:16:07;7.90;99.90
16140;DHT22;8175;49.326;12.690;2024-02-14T14:18:34;7.80;99.90
16140;DHT22;8175;49.326;12.690;2024-02-14T14:21:00;7.80;99.90
16140;DHT22;8175;49.326;12.690;2024-02-14T14:23:26;7.70;99.90
16140;DHT22;8175;49.326;12.690;2024-02-14T14:25:51;7.70;99.90
16140;DHT22;8175;49.326;12.690;2024-02-14T14:28:17;7.80;99.90
16140;DHT22;8175;49.326;12.690;2024-02-14T14:30:45;8.00;99.90
16140;DHT22;8175;49.326;12.690;2024-02-14T14:33:11;8.20;99.90
16140;DHT22;8175;49.326;12.690;2024-02-14T14:35:37;8.30;99.90
16140;DHT22;8175;49.326;12.690;2024-02-14T14:38:05;8.30;99.90
16140;DHT22;8175;49.326;12.690;2024-02-14T14:40:32;8.20;99.90
16140;DHT22;8175;49.326;12.690;2024-02-14T14:42:58;8.20;99.90
16140;DHT22;8175;49.326;12.690;2024-02-14T14:45:23;8.50;99.90
16140;DHT22;8175;49.326;12.690;2024-02-14T14:47:49;8.70;99.90
16140;DHT22;8175;49.326;12.690;2024-02-14T14:50:15;8.60;99.90
16140;DHT22;8175;49.326;12.690;2024-02-14T14:52:45;8.30;99.90
16140;DHT22;8175;49.326;12.690;2024-02-14T14:55:11;8.10;99.90
16140;DHT22;8175;49.326;12.690;2024-02-14T14:57:36;7.90;99.90
16140;DHT22;8175;49.326;12.690;2024-02-14T15:00:10;7.80;99.90
16140;DHT22;8175;49.326;12.690;2024-02-14T15:02:40;7.70;99.90
16140;DHT22;8175;49.326;12.690;2024-02-14T15:05:11;7.60;99.90
16140;DHT22;8175;49.326;12.690;2024-02-14T15:07:37;7.60;99.90
16140;DHT22;8175;49.326;12.690;2024-02-14T15:10:04;7.50;99.90
16140;DHT22;8175;49.326;12.690;2024-02-14T15:12:30;7.60;99.90
16140;DHT22;8175;49.326;12.690;2024-02-14T15:14:56;7.40;99.90
16140;DHT22;8175;49.326;12.690;2024-02-14T15:17:22;7.40;99.90
16140;DHT22;8175;49.326;12.690;2024-02-14T15:19:49;7.30;99.90
16140;DHT22;8175;49.326;12.690;2024-02-14T15:22:14;7.30;99.90
16140;DHT22;8175;49.326;12.690;2024-02-14T15:24:41;7.20;99.90
16140;DHT22;8175;49.326;12.690;2024-02-14T15:27:08;7.10;99.90
16140;DHT22;8175;49.326;12.690;2024-02-14T15:29:39;7.10;99.90
16140;DHT22;8175;49.326;12.690;2024-02-14T15:32:23;7.10;99.90
16140;DHT22;8175;49.326;12.690;2024-02-14T15:35:07;7.00;99.90
16140;DHT22;8175;49.326;12.690;2024-02-14T15:37:34;7.00;99.90
16140;DHT22;8175;49.326;12.690;2024-02-14T15:40:00;6.90;99.90
16140;DHT22;8175;49.326;12.690;2024-02-14T15:42:26;6.90;99.90
16140;DHT22;8175;49.326;12.690;2024-02-14T15:44:52;6.90;99.90